createdAt,value
2023-02-25T00:04:54.566Z,44.4
2023-02-25T00:10:47.732Z,44.3
2023-02-25T00:16:41.665Z,44.3
2023-02-25T00:22:35.757Z,44.2
2023-02-25T00:28:37.137Z,44.2
2023-02-25T00:34:30.054Z,44.1
2023-02-25T00:40:29.124Z,44.1
2023-02-25T00:46:22.545Z,44
2023-02-25T00:52:06.697Z,44
2023-02-25T00:58:00.293Z,43.9
2023-02-25T01:03:59.019Z,43.9
2023-02-25T01:09:54.799Z,43.8
2023-02-25T01:15:49.035Z,43.8
2023-02-25T01:21:11.541Z,43.8
2023-02-25T01:26:48.944Z,43.7
2023-02-25T01:32:44.066Z,43.7
2023-02-25T01:38:37.088Z,43.6
2023-02-25T01:44:30.181Z,43.6
2023-02-25T01:50:23.386Z,43.6
2023-02-25T01:56:17.416Z,43.4
2023-02-25T02:02:10.071Z,43.4
2023-02-25T02:08:03.977Z,43.4
2023-02-25T02:13:57.432Z,43.4
2023-02-25T02:19:50.280Z,43.3
2023-02-25T02:25:43.583Z,43.3
2023-02-25T02:31:20.209Z,43.2
2023-02-25T02:37:13.957Z,43.1
2023-02-25T02:42:51.510Z,43.1
2023-02-25T02:48:44.385Z,43.1
2023-02-25T02:54:37.324Z,43.1
2023-02-25T03:00:14.512Z,43
2023-02-25T03:06:07.933Z,42.9
2023-02-25T03:11:46.066Z,42.9
2023-02-25T03:17:08.430Z,42.8
2023-02-25T03:22:47.533Z,42.8
2023-02-25T03:28:24.351Z,42.8
2023-02-25T03:34:02.510Z,42.8
2023-02-25T03:39:39.120Z,42.7
2023-02-25T03:45:16.543Z,42.6
2023-02-25T03:50:55.509Z,42.6
2023-02-25T03:56:17.621Z,42.6
2023-02-25T04:01:55.103Z,42.5
2023-02-25T04:07:34.006Z,42.5
2023-02-25T04:13:25.881Z,42.4
2023-02-25T04:18:48.518Z,42.4
2023-02-25T04:24:40.867Z,42.4
2023-02-25T04:30:03.904Z,42.3
2023-02-25T04:35:58.714Z,42.3
2023-02-25T04:41:52.441Z,42.3
2023-02-25T04:47:46.800Z,42.2
2023-02-25T04:53:40.635Z,42.2
2023-02-25T04:59:32.878Z,42.1
2023-02-25T05:05:26.692Z,42.1
2023-02-25T05:11:21.646Z,42.1
2023-02-25T05:17:15.876Z,42
2023-02-25T05:22:38.392Z,41.9
2023-02-25T05:28:31.294Z,41.9
2023-02-25T05:34:25.480Z,41.8
2023-02-25T05:40:02.866Z,41.8
2023-02-25T05:45:39.733Z,41.8
2023-02-25T05:51:33.250Z,41.8
2023-02-25T05:57:09.297Z,41.7
2023-02-25T06:02:47.515Z,41.6
2023-02-25T06:08:25.039Z,41.6
2023-02-25T06:13:46.495Z,41.5
2023-02-25T06:19:40.299Z,41.5
2023-02-25T06:25:18.192Z,41.4
2023-02-25T06:31:11.530Z,41.4
2023-02-25T06:36:50.401Z,41.4
2023-02-25T06:42:28.454Z,41.3
2023-02-25T06:48:22.668Z,41.3
2023-02-25T06:54:00.020Z,41.3
2023-02-25T06:59:38.392Z,41.2
2023-02-25T07:05:17.161Z,41.1
2023-02-25T07:11:10.561Z,41.1
2023-02-25T07:16:33.330Z,41.1
2023-02-25T07:21:55.255Z,40.9
2023-02-25T07:27:32.090Z,40.9
2023-02-25T07:33:26.740Z,40.8
2023-02-25T07:39:20.041Z,40.8
2023-02-25T07:45:12.007Z,40.8
2023-02-25T07:51:04.969Z,40.7
2023-02-25T07:56:58.743Z,40.7
2023-02-25T08:02:55.021Z,40.6
2023-02-25T08:08:50.346Z,40.5
2023-02-25T08:14:43.310Z,40.5
2023-02-25T08:20:36.204Z,40.4
2023-02-25T08:26:30.253Z,40.4
2023-02-25T08:32:25.346Z,40.4
2023-02-25T08:38:03.672Z,40.3
2023-02-25T08:43:59.012Z,40.3
2023-02-25T08:49:51.942Z,40.2
2023-02-25T08:55:45.119Z,39.9
2023-02-25T09:01:37.857Z,39.4
2023-02-25T09:07:33.603Z,39.3
2023-02-25T09:13:39.512Z,39.2
2023-02-25T09:19:17.630Z,39.1
2023-02-25T09:25:09.902Z,39.1
2023-02-25T09:31:02.520Z,38.9
2023-02-25T09:36:57.049Z,38.9
2023-02-25T09:42:49.203Z,38.9
2023-02-25T09:48:26.827Z,38.9
2023-02-25T09:54:08.466Z,38.8
2023-02-25T09:59:45.337Z,38.8
2023-02-25T10:05:23.522Z,38.8
2023-02-25T10:11:01.488Z,38.7
2023-02-25T10:16:43.395Z,38.7
2023-02-25T10:22:20.652Z,38.6
2023-02-25T10:27:57.498Z,38.6
2023-02-25T10:33:50.710Z,38.6
2023-02-25T10:39:43.368Z,38.5
2023-02-25T10:45:36.792Z,38.5
2023-02-25T10:51:36.205Z,38.4
2023-02-25T10:57:28.937Z,38.3
2023-02-25T11:03:23.250Z,38.3
2023-02-25T11:09:16.138Z,38.3
2023-02-25T11:15:10.146Z,38.2
2023-02-25T11:21:22.597Z,38.2
2023-02-25T11:27:14.850Z,37.9
2023-02-25T11:33:10.528Z,37.9
2023-02-25T11:39:07.905Z,37.6
2023-02-25T11:45:00.545Z,37.2
2023-02-25T11:50:54.005Z,37
2023-02-25T11:56:16.027Z,36.9
2023-02-25T12:02:08.454Z,36.8
2023-02-25T12:08:16.550Z,36.7
2023-02-25T12:14:08.909Z,36.6
2023-02-25T12:19:45.832Z,36.4
2023-02-25T12:25:39.188Z,36.3
2023-02-25T12:31:31.997Z,36.1
2023-02-25T12:37:24.559Z,35.8
2023-02-25T12:43:21.414Z,35.6
2023-02-25T12:49:14.771Z,35.6
2023-02-25T12:55:08.856Z,35.6
2023-02-25T13:00:47.014Z,35.5
2023-02-25T13:06:41.050Z,35.4
2023-02-25T13:12:59.626Z,35.4
2023-02-25T13:18:52.672Z,35.4
2023-02-25T13:24:45.976Z,35.4
2023-02-25T13:30:38.877Z,35.4
2023-02-25T13:36:33.051Z,35.3
2023-02-25T13:42:10.228Z,35.3
2023-02-25T13:48:02.545Z,35.3
2023-02-25T13:53:58.631Z,35.3
2023-02-25T13:59:51.657Z,35.3
2023-02-25T14:05:43.626Z,35.2
2023-02-25T14:11:36.026Z,35.2
2023-02-25T14:17:34.212Z,35.1
2023-02-25T14:23:27.645Z,35.1
2023-02-25T14:28:50.412Z,35.1
2023-02-25T14:34:44.632Z,35
2023-02-25T14:40:37.131Z,35
2023-02-25T14:46:30.076Z,35
2023-02-25T14:52:22.851Z,34.9
2023-02-25T14:58:15.489Z,34.9
2023-02-25T15:04:09.171Z,34.9
2023-02-25T15:10:03.892Z,34.8
2023-02-25T15:15:56.717Z,34.8
2023-02-25T15:21:35.148Z,34.7
2023-02-25T15:27:28.193Z,34.7
2023-02-25T15:33:20.961Z,34.6
2023-02-25T15:39:15.398Z,34.6
2023-02-25T15:45:08.893Z,34.4
2023-02-25T15:50:32.205Z,34.3
2023-02-25T15:56:25.848Z,33.8
2023-02-25T16:02:04.564Z,33.6
2023-02-25T16:08:01.402Z,33.5
2023-02-25T16:13:54.049Z,33.4
2023-02-25T16:19:48.043Z,32.9
2023-02-25T16:25:40.670Z,32.4
2023-02-25T16:31:33.983Z,32.8
2023-02-25T16:37:32.173Z,32.9
2023-02-25T16:43:17.689Z,33.3
2023-02-25T16:49:11.268Z,33.3
2023-02-25T16:55:05.109Z,33.6
2023-02-25T17:00:57.686Z,33.7
2023-02-25T17:06:35.986Z,33.7
2023-02-25T17:12:29.058Z,33.7
2023-02-25T17:18:23.086Z,33.9
2023-02-25T17:24:01.322Z,34.1
2023-02-25T17:29:55.199Z,34.4
2023-02-25T17:35:49.511Z,34.8
2023-02-25T17:41:45.389Z,35.1
2023-02-25T17:47:39.325Z,35.5
2023-02-25T17:53:33.685Z,35.9
2023-02-25T17:59:28.979Z,36.2
2023-02-25T18:05:24.176Z,36.6
2023-02-25T18:11:18.037Z,37.1
2023-02-25T18:17:22.346Z,38.1
2023-02-25T18:23:16.851Z,39.4
2023-02-25T18:29:10.196Z,40.5
2023-02-25T18:35:05.540Z,41.7
2023-02-25T18:40:45.725Z,43.1
2023-02-25T18:46:40.859Z,44.4
2023-02-25T18:52:35.127Z,45.4
2023-02-25T18:58:28.951Z,46.2
2023-02-25T19:04:07.004Z,46.5
2023-02-25T19:10:00.902Z,46.7
2023-02-25T19:15:54.555Z,46.9
2023-02-25T19:21:48.916Z,47.7
2023-02-25T19:27:41.663Z,48.4
2023-02-25T19:33:37.493Z,48.8
2023-02-25T19:39:14.669Z,48.9
2023-02-25T19:45:08.596Z,48.9
2023-02-25T19:51:02.041Z,48.9
2023-02-25T19:56:56.596Z,48.9
2023-02-25T20:02:50.691Z,48.9
2023-02-25T20:08:45.481Z,48.9
2023-02-25T20:14:38.598Z,48.8
2023-02-25T20:20:33.889Z,48.8
2023-02-25T20:26:30.119Z,48.8
2023-02-25T20:32:23.741Z,48.8
2023-02-25T20:38:04.953Z,48.7
2023-02-25T20:43:58.212Z,48.7
2023-02-25T20:49:53.834Z,48.7
2023-02-25T20:55:47.046Z,48.6
2023-02-25T21:01:40.231Z,48.6
2023-02-25T21:07:33.687Z,48.6
2023-02-25T21:13:29.932Z,48.6
2023-02-25T21:19:23.219Z,48.5
2023-02-25T21:25:16.663Z,48.5
2023-02-25T21:31:10.749Z,48.4
2023-02-25T21:37:06.115Z,48.4
2023-02-25T21:42:59.009Z,48.4
2023-02-25T21:48:51.915Z,48.3
2023-02-25T21:54:44.409Z,48.3
2023-02-25T22:00:37.336Z,48.3
2023-02-25T22:06:31.597Z,48.3
2023-02-25T22:12:24.553Z,48.2
2023-02-25T22:18:16.914Z,48.2
2023-02-25T22:24:11.370Z,48.2
2023-02-25T22:30:05.934Z,48.1
2023-02-25T22:35:58.996Z,48.1
2023-02-25T22:41:36.079Z,48.1
2023-02-25T22:47:14.410Z,48.1
2023-02-25T22:53:05.630Z,48
2023-02-25T22:58:57.823Z,47.9
2023-02-25T23:04:49.577Z,47.9
2023-02-25T23:10:56.952Z,47.9
2023-02-25T23:16:51.862Z,47.9
2023-02-25T23:22:44.425Z,47.9
2023-02-25T23:28:37.134Z,47.8
2023-02-25T23:34:29.959Z,47.8
2023-02-25T23:40:23.836Z,47.8
2023-02-25T23:46:20.493Z,47.7
2023-02-25T23:52:14.126Z,47.7
2023-02-25T23:58:07.684Z,47.6
